Time;durP1;ratioP1;P1;durP2;ratioP2;P2;SDS_P1;SDS_P2;PMS_P1;PMS_P2;Temp;Humidity;BMP_temperature;BMP_pressure;BME280_temperature;BME280_humidity;BME280_pressure;Samples;Min_cycle;Max_cycle;Signal;HPM_P1;HPM_P2
2022/04/06 00:01:55;;;;;;;5.55;4.00;;;;;;;3.14;100.00;98351.57;1681768;83;20882;-70
2022/04/06 00:04:23;;;;;;;5.25;3.58;;;;;;;3.09;100.00;98355.72;1686564;83;21078;-68
2022/04/06 00:06:53;;;;;;;8.45;4.30;;;;;;;3.06;100.00;98361.19;1689321;83;20968;-68
2022/04/06 00:09:21;;;;;;;5.37;4.03;;;;;;;3.05;100.00;98358.22;1686651;83;21056;-68
2022/04/06 00:11:49;;;;;;;6.53;4.05;;;;;;;3.05;100.00;98365.55;1681266;83;21602;-68
2022/04/06 00:14:16;;;;;;;5.60;3.22;;;;;;;3.01;100.00;98359.91;1677116;85;20913;-67
2022/04/06 00:16:44;;;;;;;4.75;3.55;;;;;;;3.02;100.00;98359.36;1697108;83;21008;-69
2022/04/06 00:19:13;;;;;;;6.47;3.90;;;;;;;2.99;100.00;98353.97;1699149;83;20965;-68
2022/04/06 00:21:41;;;;;;;7.87;4.08;;;;;;;2.98;100.00;98362.66;1709876;83;20921;-69
2022/04/06 00:24:09;;;;;;;4.70;3.42;;;;;;;2.95;100.00;98362.44;1692517;83;21518;-69
2022/04/06 00:26:36;;;;;;;6.72;3.60;;;;;;;2.92;100.00;98358.96;1679351;83;20901;-68
2022/04/06 00:29:03;;;;;;;7.30;3.95;;;;;;;2.90;100.00;98362.52;1676706;83;21013;-69
2022/04/06 00:31:31;;;;;;;6.67;3.65;;;;;;;2.84;100.00;98363.17;1687438;83;20930;-68
2022/04/06 00:34:00;;;;;;;6.85;4.33;;;;;;;2.80;100.00;98369.47;1693874;83;21676;-66
2022/04/06 00:36:26;;;;;;;6.53;4.33;;;;;;;2.77;100.00;98364.09;1720152;81;21253;-67
2022/04/06 00:38:53;;;;;;;8.90;4.40;;;;;;;2.76;100.00;98370.61;1728622;82;20939;-66
2022/04/06 00:41:21;;;;;;;6.10;4.45;;;;;;;2.72;100.00;98372.84;1721773;82;20984;-66
2022/04/06 00:44:13;;;;;;;7.95;4.33;;;;;;;2.68;100.00;98371.81;1737667;82;21051;-66
2022/04/06 00:46:40;;;;;;;12.65;4.65;;;;;;;2.64;100.00;98373.75;1704078;81;20992;-68
2022/04/06 00:49:11;;;;;;;10.28;5.45;;;;;;;2.64;100.00;98383.23;1737348;82;21135;-68
2022/04/06 00:51:39;;;;;;;6.90;4.90;;;;;;;2.63;100.00;98384.33;1732854;81;21018;-70
2022/04/06 00:54:07;;;;;;;7.87;5.03;;;;;;;2.63;100.00;98378.11;1721542;82;20905;-70
2022/04/06 00:56:35;;;;;;;8.20;5.42;;;;;;;2.62;100.00;98377.30;1713563;81;20897;-69
2022/04/06 00:59:02;;;;;;;7.97;5.12;;;;;;;2.61;100.00;98376.23;1728675;82;21008;-68
2022/04/06 01:01:30;;;;;;;8.58;5.10;;;;;;;2.59;100.00;98381.14;1726270;81;21233;-67
2022/04/06 01:03:56;;;;;;;6.72;4.75;;;;;;;2.56;100.00;98381.17;1730408;81;21174;-68
2022/04/06 01:06:24;;;;;;;8.85;4.65;;;;;;;2.54;100.00;98390.14;1719119;81;21062;-68
2022/04/06 01:08:52;;;;;;;7.33;4.40;;;;;;;2.54;100.00;98394.20;1726649;82;20999;-68
2022/04/06 01:11:20;;;;;;;7.47;4.08;;;;;;;2.55;100.00;98390.95;1736014;82;21003;-68
2022/04/06 01:13:47;;;;;;;8.60;4.20;;;;;;;2.57;100.00;98392.27;1733488;82;21164;-68
2022/04/06 01:16:16;;;;;;;9.08;4.75;;;;;;;2.60;100.00;98394.40;1722718;82;20887;-68
2022/04/06 01:18:42;;;;;;;6.83;4.50;;;;;;;2.63;100.00;98401.14;1737241;81;20883;-68
2022/04/06 01:21:12;;;;;;;5.85;4.60;;;;;;;2.65;100.00;98400.30;1709567;82;21002;-68
2022/04/06 01:23:42;;;;;;;9.35;5.35;;;;;;;2.64;100.00;98399.49;1706259;82;21459;-69
2022/04/06 01:26:10;;;;;;;10.82;6.03;;;;;;;2.66;100.00;98399.20;1718338;81;21181;-69
2022/04/06 01:28:37;;;;;;;10.93;6.08;;;;;;;2.65;100.00;98394.33;1717376;81;20995;-68
2022/04/06 01:31:04;;;;;;;8.53;5.80;;;;;;;2.65;100.00;98388.91;1682418;82;21437;-69
2022/04/06 01:33:31;;;;;;;6.35;4.67;;;;;;;2.64;100.00;98383.23;1708221;82;21012;-69
2022/04/06 01:35:59;;;;;;;10.25;4.97;;;;;;;2.61;100.00;98383.01;1666121;85;21063;-69
2022/04/06 01:38:26;;;;;;;7.35;5.08;;;;;;;2.55;100.00;98384.17;1729960;81;21321;-69
2022/04/06 01:40:53;;;;;;;10.03;5.50;;;;;;;2.50;100.00;98389.66;1718122;81;20920;-69
2022/04/06 01:43:20;;;;;;;7.40;5.17;;;;;;;2.43;100.00;98383.24;1723989;81;20881;-69
2022/04/06 01:45:49;;;;;;;7.47;5.50;;;;;;;2.39;100.00;98387.63;1726178;81;20917;-69
2022/04/06 01:48:16;;;;;;;8.60;5.37;;;;;;;2.33;100.00;98388.78;1731740;82;21484;-68
2022/04/06 01:53:33;;;;;;;7.67;5.87;;;;;;;2.22;100.00;98388.69;1749314;81;21101;-71
2022/04/06 01:56:06;;;;;;;12.33;7.23;;;;;;;2.17;100.00;98401.73;1745187;82;21557;-72
2022/04/06 01:58:40;;;;;;;;;;;;;;;2.12;100.00;98402.34;1733325;82;20901;-70
2022/04/06 02:01:11;;;;;;;13.03;6.43;;;;;;;2.08;100.00;98399.40;1738756;81;20430;-71
2022/04/06 02:03:38;;;;;;;7.20;5.22;;;;;;;2.01;100.00;98394.88;1748006;80;21664;-72
2022/04/06 02:06:09;;;;;;;8.93;5.72;;;;;;;1.95;100.00;98398.73;1691550;83;20881;-68
2022/04/06 02:08:38;;;;;;;11.33;6.50;;;;;;;1.90;100.00;98415.02;1742658;82;21495;-67
2022/04/06 02:11:11;;;;;;;10.38;6.25;;;;;;;1.83;100.00;98420.77;1712746;82;20933;-69
2022/04/06 02:13:44;;;;;;;12.20;6.92;;;;;;;1.77;100.00;98417.85;1713329;83;20993;-69
2022/04/06 02:16:13;;;;;;;18.67;8.15;;;;;;;1.72;100.00;98421.99;1747576;81;20965;-68
2022/04/06 02:18:41;;;;;;;14.35;7.62;;;;;;;1.66;100.00;98417.72;1746248;81;21467;-68
2022/04/06 02:21:14;;;;;;;10.98;7.08;;;;;;;1.61;100.00;98420.47;1712805;82;20911;-68
2022/04/06 02:23:41;;;;;;;10.43;6.33;;;;;;;1.55;100.00;98414.84;1715602;81;21015;-67
2022/04/06 02:26:13;;;;;;;8.95;6.45;;;;;;;1.50;100.00;98420.30;1746015;80;21538;-67
2022/04/06 02:28:44;;;;;;;10.35;7.33;;;;;;;1.46;100.00;98432.23;1702902;81;21676;-68
2022/04/06 02:31:15;;;;;;;10.18;6.80;;;;;;;1.40;100.00;98426.59;1722987;81;20976;-69
2022/04/06 02:33:49;;;;;;;11.73;7.10;;;;;;;1.35;100.00;98421.23;1721732;82;20956;-68
2022/04/06 02:36:20;;;;;;;9.60;7.00;;;;;;;1.33;100.00;98419.35;1726022;80;21046;-68
2022/04/06 02:38:47;;;;;;;10.85;7.20;;;;;;;1.31;100.00;98429.09;1722564;80;20933;-68
2022/04/06 02:41:18;;;;;;;13.93;7.50;;;;;;;1.29;100.00;98432.63;1735844;81;21166;-68
2022/04/06 02:43:49;;;;;;;11.83;8.18;;;;;;;1.27;100.00;98437.51;1711426;82;20889;-68
2022/04/06 02:46:22;;;;;;;16.62;10.28;;;;;;;1.25;100.00;98424.01;1746816;81;20892;-68
2022/04/06 02:48:51;;;;;;;16.87;10.30;;;;;;;1.23;100.00;98423.48;1732321;80;21055;-68
2022/04/06 02:51:24;;;;;;;15.08;10.03;;;;;;;1.21;100.00;98426.47;1719843;81;20931;-68
2022/04/06 02:53:55;;;;;;;16.48;9.75;;;;;;;1.20;100.00;98425.40;1696327;82;20943;-70
2022/04/06 02:56:28;;;;;;;14.45;9.53;;;;;;;1.17;100.00;98432.17;1733323;81;21005;-69
2022/04/06 02:59:03;;;;;;;18.82;10.40;;;;;;;1.15;100.00;98428.97;1722716;82;20894;-70
2022/04/06 03:01:29;;;;;;;;;;;;;;;1.14;100.00;98422.50;1704020;82;21063;-69
2022/04/06 03:04:00;;;;;;;13.18;8.85;;;;;;;1.14;100.00;98426.55;1727613;82;20183;-69
2022/04/06 03:06:27;;;;;;;19.42;11.05;;;;;;;1.15;100.00;98426.27;1729579;82;21172;-70
2022/04/06 03:08:58;;;;;;;22.40;12.37;;;;;;;1.15;100.00;98414.11;1698983;83;20922;-70
2022/04/06 03:11:28;;;;;;;21.80;11.15;;;;;;;1.15;100.00;98412.75;1659503;84;20967;-70
2022/04/06 03:14:02;;;;;;;73.15;22.05;;;;;;;1.13;100.00;98416.28;1726039;82;20952;-70
2022/04/06 03:16:33;;;;;;;;;;;;;;;1.12;100.00;98426.83;1729397;82;21559;-70
2022/04/06 03:19:03;;;;;;;38.50;14.50;;;;;;;1.12;100.00;98430.08;1732314;82;21168;-69
2022/04/06 03:21:32;;;;;;;47.98;16.82;;;;;;;1.09;100.00;98421.99;1723391;82;20967;-68
2022/04/06 03:24:01;;;;;;;46.28;18.10;;;;;;;1.06;100.00;98425.25;1733688;82;20979;-69
2022/04/06 03:26:33;;;;;;;39.33;17.95;;;;;;;1.05;100.00;98431.75;1729801;82;21022;-68
2022/04/06 03:29:05;;;;;;;35.05;17.48;;;;;;;1.03;100.00;98425.81;1729278;82;21479;-72
2022/04/06 03:31:34;;;;;;;27.35;14.60;;;;;;;1.01;100.00;98421.23;1730963;82;21047;-69
2022/04/06 03:34:04;;;;;;;28.65;15.32;;;;;;;0.99;100.00;98423.41;1680834;83;20900;-68
2022/04/06 03:36:35;;;;;;;34.25;18.32;;;;;;;0.98;100.00;98431.25;1666989;83;20896;-68
2022/04/06 03:39:03;;;;;;;36.28;19.30;;;;;;;0.97;100.00;98434.50;1733533;81;21051;-68
2022/04/06 03:41:32;;;;;;;24.30;13.35;;;;;;;0.97;100.00;98433.69;1715635;82;21014;-68
2022/04/06 03:44:02;;;;;;;19.57;11.35;;;;;;;0.94;100.00;98429.66;1729848;80;21143;-69
2022/04/06 03:46:32;;;;;;;13.78;9.98;;;;;;;0.92;100.00;98424.27;1727511;80;20983;-68
2022/04/06 03:49:08;;;;;;;14.78;10.35;;;;;;;0.89;100.00;98416.17;1735794;80;21624;-68
2022/04/06 03:51:37;;;;;;;17.10;11.08;;;;;;;0.86;100.00;98422.14;1717426;82;21006;-67
2022/04/06 03:54:04;;;;;;;18.50;12.33;;;;;;;0.83;100.00;98429.45;1731145;82;21004;-68
2022/04/06 03:56:31;;;;;;;19.00;12.93;;;;;;;0.83;100.00;98444.85;1722200;82;21139;-68
2022/04/06 03:59:02;;;;;;;19.20;12.45;;;;;;;0.85;100.00;98446.19;1713878;82;20938;-68
2022/04/06 04:01:37;;;;;;;21.23;14.33;;;;;;;0.87;100.00;98452.66;1725276;82;20944;-67
2022/04/06 04:04:10;;;;;;;21.35;14.73;;;;;;;0.88;100.00;98461.03;1720924;80;21432;-67
2022/04/06 04:06:42;;;;;;;23.20;14.50;;;;;;;0.89;100.00;98471.56;1729920;82;20992;-69
2022/04/06 04:09:15;;;;;;;24.65;14.40;;;;;;;0.90;100.00;98476.42;1760555;80;20948;-69
2022/04/06 04:11:45;;;;;;;;;;;;;;;0.92;100.00;98486.41;1727033;82;20876;-69
2022/04/06 04:14:17;;;;;;;22.65;14.90;;;;;;;0.93;100.00;98488.03;1723225;81;20167;-68
2022/04/06 04:16:46;;;;;;;19.60;13.18;;;;;;;0.95;100.00;98479.10;1742255;82;20900;-69
2022/04/06 04:19:19;;;;;;;21.10;13.10;;;;;;;0.98;100.00;98481.25;1735258;82;20893;-69
2022/04/06 04:21:49;;;;;;;16.07;12.03;;;;;;;1.02;100.00;98479.60;1712458;83;21261;-71
2022/04/06 04:24:19;;;;;;;19.17;12.68;;;;;;;1.09;100.00;98482.00;1693320;83;21446;-70
2022/04/06 04:26:50;;;;;;;19.73;12.58;;;;;;;1.15;100.00;98476.28;1702619;81;20955;-71
2022/04/06 04:29:20;;;;;;;15.40;10.93;;;;;;;1.23;100.00;98473.50;1712533;82;20996;-71
2022/04/06 04:31:50;;;;;;;21.57;12.60;;;;;;;1.33;100.00;98468.83;1729348;81;20923;-71
2022/04/06 04:34:25;;;;;;;15.63;11.40;;;;;;;1.44;100.00;98464.16;1727525;81;21047;-71
2022/04/06 04:36:57;;;;;;;17.52;12.10;;;;;;;1.54;100.00;98464.62;1718234;82;20999;-71
2022/04/06 04:39:28;;;;;;;;;;;;;;;1.63;100.00;98469.14;1719256;82;21014;-71
2022/04/06 04:41:59;;;;;;;18.95;11.95;;;;;;;1.69;100.00;98479.38;1715333;82;20171;-72
2022/04/06 04:44:29;;;;;;;19.12;11.97;;;;;;;1.71;100.00;98482.61;1716253;81;20876;-72
2022/04/06 04:46:59;;;;;;;17.20;11.18;;;;;;;1.72;100.00;98488.28;1738337;81;20912;-72
2022/04/06 04:49:29;;;;;;;20.20;12.78;;;;;;;1.71;100.00;98496.13;1741739;81;20935;-68
2022/04/06 04:52:00;;;;;;;19.48;12.28;;;;;;;1.69;100.00;98494.80;1749079;82;20995;-71
2022/04/06 04:54:37;;;;;;;18.73;12.25;;;;;;;1.70;100.00;98494.52;1739127;81;21046;-70
2022/04/06 04:57:10;;;;;;;17.62;11.88;;;;;;;1.76;100.00;98494.71;1738728;82;21416;-69
2022/04/06 04:59:42;;;;;;;19.90;13.00;;;;;;;1.84;100.00;98485.98;1742021;82;21144;-69
2022/04/06 05:02:10;;;;;;;17.37;11.45;;;;;;;1.96;100.00;98495.08;1742501;82;20955;-69
2022/04/06 05:04:37;;;;;;;18.23;11.55;;;;;;;2.12;100.00;98512.80;1745453;82;21408;-70
2022/04/06 05:07:05;;;;;;;16.65;11.25;;;;;;;2.29;100.00;98518.58;1742143;81;21464;-68
2022/04/06 05:09:33;;;;;;;17.27;11.28;;;;;;;2.41;100.00;98519.52;1748106;82;20978;-70
2022/04/06 05:11:59;;;;;;;19.50;11.33;;;;;;;2.50;100.00;98514.27;1748865;81;22151;-70
2022/04/06 05:14:27;;;;;;;17.15;11.33;;;;;;;2.59;100.00;98520.13;1746258;81;20999;-68
2022/04/06 05:16:54;;;;;;;16.93;11.03;;;;;;;2.70;100.00;98520.02;1748310;81;21074;-68
2022/04/06 05:19:22;;;;;;;18.92;11.85;;;;;;;2.81;100.00;98513.38;1739752;81;21561;-69
2022/04/06 05:21:49;;;;;;;15.48;10.10;;;;;;;2.95;100.00;98521.03;1738043;82;21102;-70
2022/04/06 05:24:16;;;;;;;29.63;15.72;;;;;;;3.08;100.00;98511.38;1749221;82;21803;-70
2022/04/06 05:26:42;;;;;;;18.77;12.63;;;;;;;3.22;100.00;98506.84;1733107;81;21496;-67
2022/04/06 05:29:09;;;;;;;16.07;10.20;;;;;;;3.35;100.00;98488.48;1730888;82;20979;-69
2022/04/06 05:31:36;;;;;;;14.45;9.25;;;;;;;3.48;100.00;98482.84;1744786;81;20962;-70
2022/04/06 05:34:03;;;;;;;12.75;8.65;;;;;;;3.58;100.00;98504.39;1726746;82;21562;-68
2022/04/06 05:36:30;;;;;;;12.53;9.15;;;;;;;3.65;100.00;98504.27;1720634;82;21139;-67
2022/04/06 05:38:59;;;;;;;11.28;9.00;;;;;;;3.74;100.00;98507.13;1713768;82;21053;-65
2022/04/06 05:41:30;;;;;;;16.50;10.35;;;;;;;3.81;100.00;98510.27;1717200;82;20946;-67
2022/04/06 05:43:59;;;;;;;16.15;10.58;;;;;;;3.85;100.00;98514.55;1734029;82;21509;-68
2022/04/06 05:46:29;;;;;;;16.85;11.90;;;;;;;3.88;100.00;98517.48;1719002;82;20879;-71
2022/04/06 05:48:59;;;;;;;15.00;10.18;;;;;;;3.94;100.00;98518.20;1726175;82;21251;-71
2022/04/06 05:51:30;;;;;;;13.53;10.20;;;;;;;3.99;100.00;98522.19;1717190;82;20938;-72
2022/04/06 05:54:03;;;;;;;18.15;13.40;;;;;;;4.03;100.00;98529.20;1715612;82;21580;-70
2022/04/06 05:56:32;;;;;;;15.85;10.93;;;;;;;4.07;100.00;98530.19;1736773;81;21018;-73
2022/04/06 05:59:02;;;;;;;14.33;10.30;;;;;;;4.11;100.00;98523.05;1706961;82;21563;-72
2022/04/06 06:01:32;;;;;;;;;;;;;;;4.14;100.00;98522.45;1736743;82;21172;-72
2022/04/06 06:04:03;;;;;;;13.55;9.03;;;;;;;4.19;100.00;98519.66;1739743;81;20095;-72
2022/04/06 06:06:35;;;;;;;20.17;11.08;;;;;;;4.31;100.00;98516.71;1737889;82;20882;-71
2022/04/06 06:09:04;;;;;;;26.30;12.93;;;;;;;4.31;100.00;98516.71;1713395;82;21051;-72
2022/04/06 06:11:41;;;;;;;17.50;10.58;;;;;;;4.37;100.00;98518.78;1728534;82;21003;-71
2022/04/06 06:14:11;;;;;;;14.30;9.48;;;;;;;4.43;100.00;98529.81;1721365;82;21435;-71
2022/04/06 06:16:39;;;;;;;16.07;9.35;;;;;;;4.47;100.00;98513.16;1735477;82;21062;-71
2022/04/06 06:19:08;;;;;;;14.03;8.93;;;;;;;4.51;100.00;98518.25;1715164;82;20894;-70
2022/04/06 06:21:38;;;;;;;13.62;8.55;;;;;;;4.54;100.00;98520.36;1734983;82;20940;-71
2022/04/06 06:24:16;;;;;;;18.85;9.73;;;;;;;4.58;100.00;98522.73;1728382;82;21117;-71
2022/04/06 06:26:46;;;;;;;19.00;10.03;;;;;;;4.63;100.00;98521.80;1710677;82;21539;-70
2022/04/06 06:29:17;;;;;;;15.83;9.40;;;;;;;4.64;100.00;98511.98;1724939;82;20924;-72
2022/04/06 06:31:48;;;;;;;18.60;10.15;;;;;;;4.78;100.00;98519.34;1732024;82;21541;-68
2022/04/06 06:34:15;;;;;;;11.30;8.15;;;;;;;4.78;100.00;98519.34;1720666;82;21407;-72
2022/04/06 06:36:46;;;;;;;9.95;7.08;;;;;;;4.83;100.00;98520.59;1735009;82;20889;-74
2022/04/06 06:39:15;;;;;;;12.50;8.00;;;;;;;4.88;99.69;98520.49;1707506;82;21452;-74
2022/04/06 06:41:43;;;;;;;11.00;6.67;;;;;;;4.92;99.35;98516.87;1731233;82;20945;-72
2022/04/06 06:44:10;;;;;;;11.48;7.37;;;;;;;4.96;98.82;98520.59;1725925;82;21464;-68
2022/04/06 06:46:39;;;;;;;13.50;7.67;;;;;;;5.00;98.27;98526.23;1733188;82;20970;-70
2022/04/06 06:49:06;;;;;;;11.28;7.37;;;;;;;5.09;97.76;98513.52;1721731;82;21502;-69
2022/04/06 06:51:35;;;;;;;12.07;8.18;;;;;;;5.09;97.76;98513.52;1726288;82;21255;-72
2022/04/06 06:54:04;;;;;;;9.70;6.45;;;;;;;5.14;97.71;98513.41;1731197;81;21102;-69
2022/04/06 06:56:40;;;;;;;15.03;8.05;;;;;;;5.20;97.10;98511.39;1730036;82;20889;-70
2022/04/06 06:59:12;;;;;;;12.40;7.45;;;;;;;5.37;96.71;98500.64;1728991;82;21479;-72
2022/04/06 07:01:47;;;;;;;12.78;7.92;;;;;;;5.37;96.71;98500.64;1706514;82;20956;-71
2022/04/06 07:04:15;;;;;;;14.03;8.65;;;;;;;5.47;96.63;98507.77;1729248;82;21775;-86
2022/04/06 07:06:42;;;;;;;10.40;7.35;;;;;;;5.56;96.41;98507.29;1735074;82;21558;-83
2022/04/06 07:09:09;;;;;;;9.88;6.92;;;;;;;5.69;95.86;98508.35;1726575;82;21062;-68
2022/04/06 07:11:39;;;;;;;10.43;8.20;;;;;;;5.80;95.79;98505.05;1710913;82;20943;-72
2022/04/06 07:14:10;;;;;;;12.10;8.40;;;;;;;5.96;95.05;98515.05;1724268;82;20889;-73
2022/04/06 07:16:45;;;;;;;12.60;7.73;;;;;;;6.12;94.54;98510.02;1732312;82;21229;-73
2022/04/06 07:19:13;;;;;;;9.03;6.90;;;;;;;6.27;93.83;98509.63;1720623;82;21424;-71
2022/04/06 07:21:46;;;;;;;12.37;7.78;;;;;;;6.44;91.83;98497.98;1731296;82;21023;-69
2022/04/06 07:24:17;;;;;;;8.70;6.45;;;;;;;6.59;91.70;98506.55;1703052;82;21496;-70
2022/04/06 07:26:45;;;;;;;9.90;6.42;;;;;;;6.80;90.23;98512.81;1725872;82;21029;-67
2022/04/06 07:29:17;;;;;;;8.23;6.50;;;;;;;7.08;85.85;98518.81;1726306;82;22315;-68
2022/04/06 07:31:48;;;;;;;10.00;6.30;;;;;;;7.08;85.85;98518.81;1727675;82;20882;-68
2022/04/06 07:34:16;;;;;;;8.38;6.37;;;;;;;7.20;86.69;98522.53;1715744;82;21071;-71
2022/04/06 07:36:49;;;;;;;7.90;5.75;;;;;;;7.33;85.66;98520.79;1726882;82;21016;-69
2022/04/06 07:39:26;;;;;;;9.37;6.77;;;;;;;7.45;84.49;98520.16;1721398;82;20937;-73
2022/04/06 07:41:58;;;;;;;10.55;6.58;;;;;;;7.59;83.18;98516.69;1714491;82;20944;-67
2022/04/06 07:44:29;;;;;;;8.58;6.20;;;;;;;7.75;83.05;98520.55;1717014;82;20945;-75
2022/04/06 07:47:00;;;;;;;8.48;5.50;;;;;;;7.89;81.26;98519.02;1726552;82;20948;-69
2022/04/06 07:49:33;;;;;;;13.90;7.12;;;;;;;7.99;79.37;98513.23;1673292;83;21564;-68
2022/04/06 07:52:05;;;;;;;7.85;5.60;;;;;;;8.09;79.68;98518.89;1685905;83;21641;-69
2022/04/06 07:54:33;;;;;;;8.40;5.90;;;;;;;8.22;78.81;98512.44;1711001;82;21502;-72
2022/04/06 07:57:03;;;;;;;12.50;6.03;;;;;;;8.42;77.79;98514.52;1689061;82;20940;-73
2022/04/06 07:59:32;;;;;;;8.23;5.25;;;;;;;8.81;77.53;98522.16;1713400;82;20995;-84
2022/04/06 08:01:59;;;;;;;8.10;5.10;;;;;;;9.31;74.17;98517.27;1714993;82;21478;-67
2022/04/06 08:04:28;;;;;;;9.08;5.10;;;;;;;9.65;71.26;98523.89;1711533;82;20999;-75
2022/04/06 08:07:00;;;;;;;6.78;4.50;;;;;;;9.84;69.60;98520.64;1715124;82;21269;-75
2022/04/06 08:09:31;;;;;;;6.08;4.08;;;;;;;10.05;67.99;98510.45;1709838;82;21031;-71
2022/04/06 08:11:57;;;;;;;6.90;4.05;;;;;;;10.27;66.30;98523.02;1716572;83;20964;-71
2022/04/06 08:14:29;;;;;;;6.00;3.45;;;;;;;10.55;63.80;98530.84;1711249;83;20932;-73
2022/04/06 08:16:57;;;;;;;5.90;4.20;;;;;;;10.78;62.40;98513.95;1712994;83;20999;-82
2022/04/06 08:19:25;;;;;;;7.20;4.10;;;;;;;11.09;62.63;98518.86;1716757;82;21197;-90
2022/04/06 08:21:52;;;;;;;6.15;3.60;;;;;;;11.53;59.70;98517.11;1709184;83;21072;-83
2022/04/06 08:24:21;;;;;;;4.97;3.67;;;;;;;11.96;58.36;98514.24;1717190;82;21020;-79
2022/04/06 08:26:54;;;;;;;6.60;3.90;;;;;;;12.41;56.32;98528.45;1712842;82;21004;-75
2022/04/06 08:29:25;;;;;;;4.65;3.67;;;;;;;12.77;54.26;98515.59;1709893;82;20991;-76
2022/04/06 08:31:53;;;;;;;5.12;3.12;;;;;;;13.17;51.95;98529.21;1690246;83;22267;-77
2022/04/06 08:34:28;;;;;;;5.67;3.10;;;;;;;13.42;50.54;98511.27;1725497;82;20979;-74
2022/04/06 08:36:55;;;;;;;5.90;3.12;;;;;;;13.53;50.57;98523.34;1725625;81;20989;-73
2022/04/06 08:39:24;;;;;;;4.80;3.50;;;;;;;13.49;49.70;98510.06;1717581;82;20971;-70
2022/04/06 08:42:03;;;;;;;11.45;3.92;;;;;;;13.20;49.24;98516.09;1710535;82;20983;-72
2022/04/06 08:44:34;;;;;;;4.87;3.37;;;;;;;12.87;50.29;98506.80;1719397;82;21332;-69
2022/04/06 08:47:08;;;;;;;5.25;3.80;;;;;;;12.73;51.26;98511.95;1710360;82;21443;-68
2022/04/06 08:49:37;;;;;;;3.95;3.00;;;;;;;12.77;51.81;98520.52;1712130;82;20963;-71
2022/04/06 08:52:06;;;;;;;5.22;3.17;;;;;;;12.83;51.27;98514.17;1696676;82;21065;-68
2022/04/06 08:54:37;;;;;;;4.05;2.55;;;;;;;12.95;50.99;98523.73;1706392;81;21079;-73
2022/04/06 08:57:06;;;;;;;5.78;2.90;;;;;;;13.12;50.77;98512.92;1713790;82;21266;-69
2022/04/06 08:59:34;;;;;;;3.45;2.62;;;;;;;13.37;51.49;98501.91;1721206;81;21017;-69
2022/04/06 09:02:04;;;;;;;3.08;2.40;;;;;;;13.70;50.27;98511.11;1711986;83;20978;-74
2022/04/06 09:04:35;;;;;;;3.40;2.60;;;;;;;13.84;48.70;98527.97;1711134;82;21019;-67
2022/04/06 09:07:09;;;;;;;3.98;2.90;;;;;;;13.68;49.00;98511.25;1713421;83;21036;-70
2022/04/06 09:09:36;;;;;;;3.67;2.45;;;;;;;13.44;48.60;98531.01;1715370;83;21149;-70
2022/04/06 09:12:09;;;;;;;3.20;2.50;;;;;;;13.12;49.35;98513.72;1687403;83;20998;-67
2022/04/06 09:14:42;;;;;;;3.80;2.67;;;;;;;12.85;50.21;98510.48;1714011;82;21000;-70
2022/04/06 09:17:20;;;;;;;3.12;2.30;;;;;;;12.57;50.03;98514.72;1718258;83;21502;-69
2022/04/06 09:19:50;;;;;;;2.98;2.33;;;;;;;12.26;50.99;98510.53;1716532;82;21031;-70
2022/04/06 09:22:17;;;;;;;3.27;2.40;;;;;;;12.00;51.96;98517.31;1712577;82;21785;-72
2022/04/06 09:25:00;;;;;;;5.62;2.17;;;;;;;11.80;51.76;98503.18;1715150;82;20995;-72
2022/04/06 09:27:32;;;;;;;3.95;2.20;;;;;;;11.68;52.55;98512.23;1718649;82;21006;-70
2022/04/06 09:30:05;;;;;;;5.17;1.52;;;;;;;11.58;52.99;98504.47;1717053;83;21005;-70
2022/04/06 09:32:36;;;;;;;5.60;2.80;;;;;;;11.57;52.90;98498.17;1689282;83;20916;-71
2022/04/06 09:35:31;;;;;;;2.85;2.00;;;;;;;11.59;52.64;98503.31;1708637;83;21211;-70
2022/04/06 09:38:23;;;;;;;3.90;2.40;;;;;;;11.62;52.58;98505.38;1732735;82;21010;-70
2022/04/06 09:41:07;;;;;;;3.25;2.02;;;;;;;11.64;53.06;98516.02;1742536;81;21080;-71
2022/04/06 09:43:38;;;;;;;5.47;2.33;;;;;;;11.63;53.12;98484.19;1743732;81;20944;-70
2022/04/06 09:49:21;;;;;;;4.58;2.30;;;;;;;11.61;53.47;98520.27;1744014;82;21076;-71
2022/04/06 09:51:53;;;;;;;4.30;3.00;;;;;;;11.57;53.86;98500.12;1741832;81;21034;-70
2022/04/06 09:54:23;;;;;;;5.22;3.05;;;;;;;11.56;53.97;98534.25;1729196;81;21053;-70
2022/04/06 09:57:00;;;;;;;3.42;2.40;;;;;;;11.53;54.35;98519.28;1734759;82;21028;-72
2022/04/06 09:59:28;;;;;;;3.55;2.75;;;;;;;11.51;54.42;98515.27;1718907;82;20946;-72
2022/04/06 10:02:01;;;;;;;3.98;3.40;;;;;;;11.49;54.58;98517.00;1741305;81;21223;-71
2022/04/06 10:04:31;;;;;;;3.42;2.77;;;;;;;11.52;55.15;98516.88;1724021;81;21449;-72
2022/04/06 10:07:03;;;;;;;3.12;2.20;;;;;;;11.53;54.97;98515.73;1736922;81;21449;-72
2022/04/06 10:09:32;;;;;;;2.42;1.60;;;;;;;11.53;54.60;98521.23;1740896;82;21036;-72
2022/04/06 10:12:07;;;;;;;3.10;1.82;;;;;;;11.52;55.07;98518.25;1719757;81;21085;-71
2022/04/06 10:14:40;;;;;;;2.77;1.87;;;;;;;11.52;54.99;98527.88;1691573;81;20924;-71
2022/04/06 10:17:09;;;;;;;2.62;2.08;;;;;;;11.53;54.60;98524.78;1738172;82;20894;-71
2022/04/06 10:19:40;;;;;;;2.37;1.92;;;;;;;11.58;54.89;98536.08;1721631;82;20871;-72
2022/04/06 10:22:22;;;;;;;3.15;1.90;;;;;;;11.64;54.41;98527.81;1725175;82;20933;-72
2022/04/06 10:25:03;;;;;;;2.65;2.05;;;;;;;11.75;54.53;98539.94;1702132;82;21029;-71
2022/04/06 10:27:52;;;;;;;2.33;2.12;;;;;;;11.88;54.52;98525.03;1677207;82;21131;-71
2022/04/06 10:30:31;;;;;;;7.80;2.67;;;;;;;12.01;54.12;98518.92;1706041;82;20980;-70
2022/04/06 10:33:02;;;;;;;4.35;2.47;;;;;;;12.10;54.33;98534.70;1721778;82;21093;-71
2022/04/06 10:35:37;;;;;;;4.33;2.72;;;;;;;12.20;54.08;98525.12;1702520;81;21010;-72
2022/04/06 10:38:11;;;;;;;3.87;2.65;;;;;;;12.55;54.15;98528.84;1708924;82;21157;-72
2022/04/06 10:40:52;;;;;;;3.62;2.22;;;;;;;13.19;53.29;98522.19;1725807;82;21937;-71
2022/04/06 10:43:50;;;;;;;2.27;1.92;;;;;;;13.68;51.58;98518.14;1698448;82;20904;-71
2022/04/06 10:46:19;;;;;;;4.75;2.33;;;;;;;14.12;50.43;98520.83;1723045;82;20983;-72
2022/04/06 10:49:13;;;;;;;4.10;3.40;;;;;;;14.22;48.72;98529.11;1717574;82;21482;-71
2022/04/06 10:51:48;;;;;;;3.35;2.10;;;;;;;14.05;48.84;98538.63;1698597;82;21079;-71
2022/04/06 10:54:23;;;;;;;4.22;1.82;;;;;;;13.76;49.29;98527.59;1726028;81;21661;-71
2022/04/06 10:56:58;;;;;;;2.47;1.75;;;;;;;13.57;49.61;98529.52;1731553;82;21059;-73
2022/04/06 10:59:33;;;;;;;3.40;1.60;;;;;;;13.37;50.21;98531.42;1746114;81;20884;-70
2022/04/06 11:02:30;;;;;;;2.55;1.52;;;;;;;13.19;50.48;98539.30;1730668;82;21095;-72
2022/04/06 11:04:56;;;;;;;2.65;1.85;;;;;;;13.01;50.92;98551.81;1728647;82;20920;-72
2022/04/06 11:10:24;;;;;;;3.62;1.90;;;;;;;12.68;52.07;98540.58;1725643;82;21039;-70
2022/04/06 11:13:06;;;;;;;2.40;1.45;;;;;;;12.56;52.80;98548.33;1738662;81;20995;-69
2022/04/06 11:15:40;;;;;;;1.95;1.50;;;;;;;12.47;52.96;98544.94;1716300;82;20999;-71
2022/04/06 11:18:51;;;;;;;2.50;1.57;;;;;;;12.36;53.11;98545.80;1740437;82;21043;-69
2022/04/06 11:21:20;;;;;;;1.75;1.07;;;;;;;12.29;53.74;98559.36;1742341;81;21677;-71
2022/04/06 11:23:52;;;;;;;2.27;1.40;;;;;;;12.19;54.16;98553.78;1747251;80;21090;-71
2022/04/06 11:26:22;;;;;;;4.93;2.97;;;;;;;12.13;54.39;98557.36;1740208;81;21094;-70
2022/04/06 11:29:01;;;;;;;3.08;1.95;;;;;;;12.08;54.89;98570.02;1746058;82;21082;-71
2022/04/06 11:31:28;;;;;;;3.22;1.95;;;;;;;12.02;54.95;98560.41;1738963;82;21561;-68
2022/04/06 11:33:59;;;;;;;3.25;2.30;;;;;;;11.97;55.45;98570.85;1746099;82;21045;-69
2022/04/06 11:36:28;;;;;;;2.93;2.23;;;;;;;11.92;55.82;98567.77;1740509;81;20967;-71
2022/04/06 11:38:56;;;;;;;2.80;2.50;;;;;;;11.85;55.88;98573.05;1743914;82;21242;-71
2022/04/06 11:41:29;;;;;;;4.42;2.50;;;;;;;11.80;55.93;98580.97;1744967;82;21005;-71
2022/04/06 11:44:01;;;;;;;4.17;2.70;;;;;;;11.76;56.41;98574.53;1735065;82;21073;-70
2022/04/06 11:46:35;;;;;;;2.27;2.05;;;;;;;11.73;56.60;98575.22;1735242;81;20876;-70
2022/04/06 11:49:13;;;;;;;3.72;2.65;;;;;;;11.70;56.73;98582.79;1734587;81;21014;-70
2022/04/06 11:51:42;;;;;;;4.62;2.52;;;;;;;11.68;56.99;98584.28;1730091;81;20908;-71
2022/04/06 11:54:14;;;;;;;4.80;2.85;;;;;;;11.66;57.42;98580.50;1672565;83;20903;-70
2022/04/06 11:56:49;;;;;;;7.22;3.60;;;;;;;11.65;57.43;98576.72;1742188;81;21050;-70